Time;durP1;ratioP1;P1;durP2;ratioP2;P2;SDS_P1;SDS_P2;PMS_P1;PMS_P2;Temp;Humidity;BMP_temperature;BMP_pressure;BME280_temperature;BME280_humidity;BME280_pressure;Samples;Min_cycle;Max_cycle;Signal;HPM_P1;HPM_P2
2023/06/07 00:00:44;;;;;;;;;0.00;0.00;;;;;-146.67;32.00;74028.78;5004648;28;61913;-77
2023/06/07 00:03:09;;;;;;;;;0.00;0.00;;;;;-146.67;32.47;74016.78;5003943;28;62176;-77
2023/06/07 00:05:38;;;;;;;;;0.00;0.00;;;;;-146.67;31.87;74022.78;5004672;28;61909;-77
2023/06/07 00:08:05;;;;;;;;;0.00;0.00;;;;;-146.67;31.88;74030.78;5004991;28;61868;-77
2023/06/07 00:10:33;;;;;;;;;0.00;0.00;;;;;-146.67;32.24;74024.78;5005037;28;61831;-77
2023/06/07 00:12:58;;;;;;;;;0.00;0.00;;;;;-146.67;32.00;74028.78;4986130;28;64568;-77
2023/06/07 00:15:23;;;;;;;;;0.00;0.00;;;;;-146.67;32.22;74024.78;5004728;28;61660;-77
2023/06/07 00:17:49;;;;;;;;;0.00;0.00;;;;;-146.67;31.79;74040.75;4985765;28;61786;-77
2023/06/07 00:20:14;;;;;;;;;0.00;0.00;;;;;-146.67;32.07;74068.69;5004970;28;61845;-78
2023/06/07 00:22:40;;;;;;;;;0.00;0.00;;;;;-146.67;32.44;74080.69;5003807;28;63017;-77
2023/06/07 00:25:06;;;;;;;;;0.00;0.00;;;;;-146.67;32.30;74088.66;5004170;28;61722;-77
2023/06/07 00:27:32;;;;;;;;;0.00;0.00;;;;;-146.67;32.27;74106.63;5004432;28;61846;-77
2023/06/07 00:29:58;;;;;;;;;0.00;0.00;;;;;-146.67;32.32;74108.63;5002884;28;61765;-77
2023/06/07 00:32:23;;;;;;;;;0.00;0.00;;;;;-146.67;32.94;74116.59;5003126;28;61914;-77
2023/06/07 00:34:49;;;;;;;;;0.00;0.00;;;;;-146.67;32.61;74122.59;5003269;28;61816;-77
2023/06/07 00:37:14;;;;;;;;;0.00;0.00;;;;;-146.67;32.23;74114.63;5003242;28;62254;-77
2023/06/07 00:39:40;;;;;;;;;0.00;0.00;;;;;-146.67;32.33;74112.63;4985358;28;61824;-77
2023/06/07 00:42:06;;;;;;;;;0.00;0.00;;;;;-146.67;32.30;74098.66;5002784;28;62876;-77
2023/06/07 00:44:32;;;;;;;;;0.00;0.00;;;;;-146.67;32.24;74096.66;5003747;28;61960;-77
2023/06/07 00:46:57;;;;;;;;;1.00;0.00;;;;;-146.67;32.02;74126.59;4984983;28;61881;-77
2023/06/07 00:49:23;;;;;;;;;0.00;0.00;;;;;-146.67;32.73;74136.56;5003058;28;61828;-77
2023/06/07 00:51:49;;;;;;;;;0.00;0.00;;;;;-146.67;32.07;74136.56;4985770;28;63876;-77
2023/06/07 00:54:17;;;;;;;;;0.00;0.00;;;;;-146.67;32.67;74144.56;5004187;28;61784;-77
2023/06/07 00:56:45;;;;;;;;;0.00;0.00;;;;;-146.67;33.01;74158.53;5003723;28;61890;-77
2023/06/07 00:59:11;;;;;;;;;0.00;0.00;;;;;-146.67;32.77;74174.50;5004151;28;62234;-77
2023/06/07 01:01:36;;;;;;;;;0.00;0.00;;;;;-146.67;33.09;74182.50;5002935;28;62057;-77
2023/06/07 01:04:05;;;;;;;;;0.00;0.00;;;;;-146.67;32.65;74176.50;4986345;28;61896;-77
2023/06/07 01:06:30;;;;;;;;;0.00;0.00;;;;;-146.67;32.84;74172.50;5004218;28;61815;-77
2023/06/07 01:08:56;;;;;;;;;0.00;0.00;;;;;-146.67;32.70;74166.50;5004063;28;61835;-77
2023/06/07 01:11:24;;;;;;;;;0.00;0.00;;;;;-146.67;32.75;74162.53;4985228;28;63967;-77
2023/06/07 01:13:50;;;;;;;;;0.00;0.00;;;;;-146.67;32.68;74162.53;5003828;28;61989;-77
2023/06/07 01:16:16;;;;;;;;;0.00;0.00;;;;;-146.67;33.07;74170.50;5003319;28;61746;-77
2023/06/07 01:18:42;;;;;;;;;0.00;0.00;;;;;-146.67;32.85;74176.50;5003625;28;61933;-77
2023/06/07 01:21:13;;;;;;;;;0.00;0.00;;;;;-146.67;33.43;74188.47;4984992;28;63491;-77
2023/06/07 01:23:40;;;;;;;;;0.00;0.00;;;;;-146.67;33.28;74210.44;5002419;28;62084;-77
2023/06/07 01:26:06;;;;;;;;;0.00;0.00;;;;;-146.67;32.88;74192.47;4985789;28;62049;-77
2023/06/07 01:28:37;;;;;;;;;0.00;0.00;;;;;-146.67;32.78;74176.50;5003920;28;61897;-77
2023/06/07 01:31:04;;;;;;;;;0.00;0.00;;;;;-146.67;33.22;74196.47;5002597;28;62110;-77
2023/06/07 01:33:32;;;;;;;;;0.00;0.00;;;;;-146.67;33.27;74200.44;5003715;28;61918;-77
2023/06/07 01:35:58;;;;;;;;;0.00;0.00;;;;;-146.67;33.38;74194.47;5002722;28;61921;-77
2023/06/07 01:38:26;;;;;;;;;0.00;0.00;;;;;-146.67;33.04;74194.47;5003119;28;61797;-77
2023/06/07 01:40:53;;;;;;;;;0.00;0.00;;;;;-146.67;32.95;74200.44;5002975;28;61777;-77
2023/06/07 01:43:18;;;;;;;;;0.00;0.00;;;;;-146.67;33.15;74202.44;5003122;28;62038;-77
2023/06/07 01:45:45;;;;;;;;;0.00;0.00;;;;;-146.67;33.12;74222.41;5003059;28;61860;-77
2023/06/07 01:48:11;;;;;;;;;0.00;0.00;;;;;-146.67;32.87;74212.44;5002855;28;61914;-77
2023/06/07 01:50:37;;;;;;;;;0.00;0.00;;;;;-146.67;33.04;74216.44;4984760;28;63613;-76
2023/06/07 01:53:02;;;;;;;;;0.00;0.00;;;;;-146.67;32.88;74212.44;5003295;28;62042;-77
2023/06/07 01:55:28;;;;;;;;;0.00;0.00;;;;;-146.67;32.98;74218.41;4985411;28;62239;-77
2023/06/07 01:58:02;;;;;;;;;0.00;0.00;;;;;-146.67;32.96;74214.44;4985576;28;61923;-77
2023/06/07 02:00:33;;;;;;;;;0.00;0.00;;;;;-146.67;32.98;74218.41;5001946;28;63134;-77
2023/06/07 02:03:04;;;;;;;;;0.00;0.00;;;;;-146.67;32.86;74226.41;5003108;28;61989;-77
2023/06/07 02:05:36;;;;;;;;;0.00;0.00;;;;;-146.67;33.09;74228.41;4985153;28;62137;-77
2023/06/07 02:08:09;;;;;;;;;0.00;0.00;;;;;-146.67;33.04;74228.41;4985660;28;62068;-77
2023/06/07 02:10:37;;;;;;;;;0.00;0.00;;;;;-146.67;33.21;74232.41;5001088;28;63783;-77
2023/06/07 02:13:04;;;;;;;;;1.00;1.00;;;;;-146.67;33.80;74260.34;5002850;28;62476;-77
2023/06/07 02:15:30;;;;;;;;;0.00;0.00;;;;;-146.67;33.60;74280.31;5002457;28;61857;-77
2023/06/07 02:17:58;;;;;;;;;0.00;0.00;;;;;-146.67;33.83;74288.28;5002613;28;61693;-77
2023/06/07 02:20:28;;;;;;;;;0.00;0.00;;;;;-146.67;33.90;74296.28;5002217;28;61933;-77
2023/06/07 02:22:55;;;;;;;;;0.00;0.00;;;;;-146.67;33.71;74296.28;5002827;28;61882;-76
2023/06/07 02:25:21;;;;;;;;;0.00;0.00;;;;;-146.67;33.60;74292.28;5003011;28;61910;-77
2023/06/07 02:27:47;;;;;;;;;0.00;0.00;;;;;-146.67;33.78;74284.28;5002845;28;61967;-76
2023/06/07 02:30:12;;;;;;;;;0.00;0.00;;;;;-146.67;33.60;74284.28;4984001;28;63627;-77
2023/06/07 02:32:38;;;;;;;;;0.00;0.00;;;;;-146.67;33.86;74282.31;4984880;28;61833;-77
2023/06/07 02:35:07;;;;;;;;;0.00;0.00;;;;;-146.67;33.61;74272.31;5002890;28;61745;-76
2023/06/07 02:37:32;;;;;;;;;0.00;0.00;;;;;-146.67;33.55;74270.31;5002646;28;62027;-77
2023/06/07 02:39:58;;;;;;;;;0.00;0.00;;;;;-146.67;33.50;74284.28;5002306;28;62050;-77
2023/06/07 02:42:23;;;;;;;;;0.00;0.00;;;;;-146.67;33.87;74298.28;5002192;28;61777;-77
2023/06/07 02:44:48;;;;;;;;;0.00;0.00;;;;;-146.67;33.80;74308.25;4984587;28;61801;-77
2023/06/07 02:47:14;;;;;;;;;0.00;0.00;;;;;-146.67;34.05;74312.25;5002110;28;61690;-77
2023/06/07 02:49:39;;;;;;;;;0.00;0.00;;;;;-146.67;33.98;74324.22;5001588;28;62848;-77
2023/06/07 02:52:05;;;;;;;;;0.00;0.00;;;;;-146.67;33.91;74322.22;4984976;28;62123;-76
2023/06/07 02:54:34;;;;;;;;;0.00;0.00;;;;;-146.67;33.88;74324.22;5002600;28;61806;-76
2023/06/07 02:57:00;;;;;;;;;0.00;0.00;;;;;-146.67;34.13;74346.19;5002033;28;62176;-77
2023/06/07 02:59:26;;;;;;;;;0.00;0.00;;;;;-146.67;34.26;74352.19;4997894;28;63740;-77
2023/06/07 03:01:52;;;;;;;;;0.00;0.00;;;;;-146.67;34.22;74350.19;4984495;28;61908;-77
2023/06/07 03:04:18;;;;;;;;;0.00;0.00;;;;;-146.67;34.42;74358.16;5002561;28;61825;-77
2023/06/07 03:06:44;;;;;;;;;0.00;0.00;;;;;-146.67;34.20;74348.19;5002512;28;62182;-77
2023/06/07 03:09:09;;;;;;;;;0.00;0.00;;;;;-146.67;34.11;74342.19;4983715;28;64869;-77
2023/06/07 03:11:35;;;;;;;;;0.00;0.00;;;;;-146.67;34.14;74340.19;5001726;28;62194;-77
2023/06/07 03:14:00;;;;;;;;;0.00;0.00;;;;;-146.67;33.98;74332.22;5002155;28;61768;-77
2023/06/07 03:16:26;;;;;;;;;0.00;0.00;;;;;-146.67;34.05;74334.22;5000985;28;62094;-77
2023/06/07 03:18:52;;;;;;;;;0.00;0.00;;;;;-146.67;34.08;74340.19;4982945;28;64135;-77
2023/06/07 03:21:17;;;;;;;;;0.00;0.00;;;;;-146.67;33.74;74340.19;4984358;28;62253;-77
2023/06/07 03:23:43;;;;;;;;;0.00;0.00;;;;;-146.67;34.10;74344.19;5002053;28;62363;-77
2023/06/07 03:26:10;;;;;;;;;0.00;0.00;;;;;-146.67;34.22;74350.19;4984001;28;61923;-77
2023/06/07 03:28:35;;;;;;;;;0.00;0.00;;;;;-146.67;34.31;74354.16;5001498;28;62970;-77
2023/06/07 03:31:01;;;;;;;;;0.00;0.00;;;;;-146.67;34.28;74354.16;5001741;28;61986;-77
2023/06/07 03:33:26;;;;;;;;;0.00;0.00;;;;;-146.67;34.22;74364.16;5002192;28;61877;-77
2023/06/07 03:35:52;;;;;;;;;0.00;0.00;;;;;-146.67;34.37;74362.16;5000707;28;61847;-77
2023/06/07 03:38:17;;;;;;;;;0.00;0.00;;;;;-146.67;34.25;74352.19;4999800;28;64919;-77
2023/06/07 03:40:42;;;;;;;;;0.00;0.00;;;;;-146.67;34.33;74358.16;5001660;28;61686;-77
2023/06/07 03:43:08;;;;;;;;;0.00;0.00;;;;;-146.67;34.27;74366.16;5001280;28;62157;-77
2023/06/07 03:45:33;;;;;;;;;0.00;0.00;;;;;-146.67;34.45;74378.13;5002138;28;61847;-77
2023/06/07 03:47:58;;;;;;;;;0.00;0.00;;;;;-146.67;34.90;74396.09;5000478;28;62091;-77
2023/06/07 03:50:24;;;;;;;;;0.00;0.00;;;;;-146.67;34.67;74396.09;4984146;28;61936;-77
2023/06/07 03:52:49;;;;;;;;;0.00;0.00;;;;;-146.67;34.49;74390.09;5001931;28;62387;-78
2023/06/07 03:55:19;;;;;;;;;0.00;0.00;;;;;-146.67;34.66;74386.13;5001209;28;61715;-78
2023/06/07 03:57:46;;;;;;;;;0.00;0.00;;;;;-146.67;34.49;74392.09;5001169;28;62026;-78
2023/06/07 04:00:14;;;;;;;;;0.00;0.00;;;;;-146.67;34.52;74400.09;5002931;28;61859;-78
2023/06/07 04:02:41;;;;;;;;;0.00;0.00;;;;;-146.67;34.67;74400.09;4987470;28;61960;-76
2023/06/07 04:05:07;;;;;;;;;0.00;0.00;;;;;-146.67;34.61;74398.09;5005007;28;62096;-77
2023/06/07 04:07:32;;;;;;;;;0.00;0.00;;;;;-146.67;34.50;74404.09;5003002;28;64578;-77
2023/06/07 04:09:57;;;;;;;;;0.00;0.00;;;;;-146.67;34.50;74404.09;5004765;28;62105;-76
2023/06/07 04:12:23;;;;;;;;;0.00;0.00;;;;;-146.67;34.50;74402.09;5004759;28;61974;-76
2023/06/07 04:14:48;;;;;;;;;0.00;0.00;;;;;-146.67;34.84;74410.06;5005079;28;61841;-77
2023/06/07 04:17:13;;;;;;;;;0.00;0.00;;;;;-146.67;34.56;74420.06;5002168;28;63739;-77
2023/06/07 04:19:39;;;;;;;;;0.00;0.00;;;;;-146.67;34.67;74410.06;4986976;28;61769;-76
2023/06/07 04:22:05;;;;;;;;;0.00;0.00;;;;;-146.67;34.50;74408.06;4983567;28;62231;-76
2023/06/07 04:24:32;;;;;;;;;0.00;0.00;;;;;-146.67;34.52;74412.06;4985013;28;62180;-76
2023/06/07 04:26:58;;;;;;;;;0.00;0.00;;;;;-146.67;34.61;74412.06;4984409;28;62073;-77
2023/06/07 04:29:26;;;;;;;;;0.00;0.00;;;;;-146.67;34.67;74410.06;4987647;28;61924;-77
2023/06/07 04:31:58;;;;;;;;;0.00;0.00;;;;;-146.67;34.57;74412.06;4983744;28;61793;-76
2023/06/07 04:34:24;;;;;;;;;0.00;0.00;;;;;-146.67;34.67;74412.06;4983698;28;62147;-76
2023/06/07 04:36:50;;;;;;;;;0.00;0.00;;;;;-146.67;34.79;74404.09;4982701;28;62221;-77
2023/06/07 04:39:18;;;;;;;;;0.00;0.00;;;;;-146.67;34.79;74420.06;4982185;28;62153;-77
2023/06/07 04:41:45;;;;;;;;;0.00;0.00;;;;;-146.67;34.84;74428.03;4983947;28;61747;-77
2023/06/07 04:44:11;;;;;;;;;0.00;0.00;;;;;-146.67;34.63;74426.03;4984825;28;62072;-77
2023/06/07 04:46:39;;;;;;;;;0.00;0.00;;;;;-146.67;34.75;74426.03;4998979;28;64194;-76
2023/06/07 04:49:05;;;;;;;;;0.00;0.00;;;;;-146.67;34.74;74430.03;4984052;28;62181;-77
2023/06/07 04:51:30;;;;;;;;;0.00;0.00;;;;;-146.67;34.75;74424.03;4984609;28;62315;-76
2023/06/07 04:54:01;;;;;;;;;0.00;0.00;;;;;-146.67;34.80;74422.03;4984637;28;62091;-76
2023/06/07 04:56:30;;;;;;;;;0.00;0.00;;;;;-146.67;34.79;74424.03;4983709;28;62119;-77
2023/06/07 04:58:56;;;;;;;;;0.00;0.00;;;;;-146.67;34.59;74420.06;4984516;28;61805;-76
2023/06/07 05:01:22;;;;;;;;;0.00;0.00;;;;;-146.67;34.63;74420.06;4999232;28;62197;-76
2023/06/07 05:03:49;;;;;;;;;0.00;0.00;;;;;-146.67;34.99;74426.03;4983322;28;62223;-76
2023/06/07 05:06:17;;;;;;;;;0.00;0.00;;;;;-146.67;35.01;74436.03;4983856;28;62089;-77
2023/06/07 05:08:43;;;;;;;;;23.50;20.25;;;;;-146.67;35.22;74436.03;4982755;28;61965;-76
2023/06/07 05:11:10;;;;;;;;;0.00;0.00;;;;;-146.67;34.67;74430.03;4984331;28;61743;-76
2023/06/07 05:13:35;;;;;;;;;0.00;0.00;;;;;-146.67;34.70;74430.03;4983668;28;61694;-75
2023/06/07 05:16:02;;;;;;;;;0.00;0.00;;;;;-146.67;35.06;74434.03;4983748;28;62077;-74
2023/06/07 05:18:28;;;;;;;;;0.00;0.00;;;;;-146.67;34.86;74436.03;4983133;28;61707;-74
2023/06/07 05:20:53;;;;;;;;;0.00;0.00;;;;;-146.67;34.70;74426.03;4987063;28;61933;-74
2023/06/07 05:23:18;;;;;;;;;0.00;0.00;;;;;-146.67;34.72;74436.03;5003075;28;62166;-75
2023/06/07 05:25:44;;;;;;;;;0.00;0.00;;;;;-146.67;34.87;74424.03;5003496;28;61735;-74
2023/06/07 05:28:10;;;;;;;;;0.00;0.00;;;;;-146.67;34.67;74432.03;4985700;28;62016;-75
2023/06/07 05:30:36;;;;;;;;;0.00;0.00;;;;;-146.67;34.73;74428.03;5003241;28;61737;-75
2023/06/07 05:33:02;;;;;;;;;0.00;0.00;;;;;-146.67;34.48;74414.06;4995879;28;61700;-76
2023/06/07 05:35:27;;;;;;;;;0.00;0.00;;;;;-146.67;34.23;74358.16;5002795;28;62921;-74
2023/06/07 05:37:53;;;;;;;;;0.00;0.00;;;;;-146.67;34.08;74346.19;5002573;28;61831;-74
2023/06/07 05:40:18;;;;;;;;;0.00;0.00;;;;;-146.67;33.76;74324.22;5003508;28;61844;-75
2023/06/07 05:42:49;;;;;;;;;0.00;0.00;;;;;-146.67;33.86;74330.22;5003319;28;61859;-75
2023/06/07 05:45:14;;;;;;;;;0.00;0.00;;;;;-146.67;34.04;74348.19;5000479;28;63755;-75
2023/06/07 05:47:41;;;;;;;;;0.00;0.00;;;;;-146.67;34.18;74354.16;4984779;28;61953;-76
2023/06/07 05:50:07;;;;;;;;;0.00;0.00;;;;;-146.67;34.24;74374.13;5003111;28;61981;-76
2023/06/07 05:52:32;;;;;;;;;0.00;0.00;;;;;-146.67;34.46;74392.09;5003065;28;61966;-76
2023/06/07 05:54:58;;;;;;;;;0.00;0.00;;;;;-146.67;34.65;74390.09;5002192;28;62742;-75
2023/06/07 05:57:24;;;;;;;;;0.00;0.00;;;;;-146.67;34.53;74400.09;4984856;28;61853;-76
2023/06/07 05:59:50;;;;;;;;;0.00;0.00;;;;;-146.67;34.71;74400.09;5001917;28;61832;-76
2023/06/07 06:15:24;;;;;;;;;0.00;0.00;;;;;-146.67;34.53;74398.09;4652826;22;64061;-79
2023/06/07 06:20:25;;;;;;;;;0.00;0.00;;;;;-146.67;33.94;74318.25;4977812;28;62113;-81
2023/06/07 06:22:51;;;;;;;;;0.00;0.00;;;;;-146.67;33.59;74260.34;4981675;28;62070;-82
2023/06/07 06:25:17;;;;;;;;;0.00;0.00;;;;;-146.67;32.58;74106.63;4956889;28;61995;-82
2023/06/07 06:27:42;;;;;;;;;0.00;0.00;;;;;-146.67;31.79;74028.78;4973246;28;62098;-82
2023/06/07 06:30:08;;;;;;;;;0.00;0.00;;;;;-146.67;31.55;74008.81;4964097;28;62257;-80
2023/06/07 06:32:34;;;;;;;;;0.00;0.00;;;;;-146.67;31.26;73968.88;4971807;28;61901;-81
2023/06/07 06:35:03;;;;;;;;;0.00;0.00;;;;;-146.67;31.42;73992.84;4951255;28;62026;-81
2023/06/07 06:37:28;;;;;;;;;0.00;0.00;;;;;-146.67;31.28;74030.78;4980538;28;63586;-81
2023/06/07 06:39:54;;;;;;;;;0.00;0.00;;;;;-146.67;31.62;74080.69;4980298;28;61937;-80
2023/06/07 06:42:19;;;;;;;;;0.00;0.00;;;;;-146.67;32.09;74120.59;4980958;28;61817;-81
2023/06/07 06:44:45;;;;;;;;;0.00;0.00;;;;;-146.67;32.43;74150.53;4964721;28;61795;-81
2023/06/07 06:47:10;;;;;;;;;0.00;0.00;;;;;-146.67;32.53;74170.50;4979600;28;63525;-81
2023/06/07 06:49:39;;;;;;;;;0.00;0.00;;;;;-146.67;32.61;74180.50;4977405;28;61988;-88
2023/06/07 06:52:05;;;;;;;;;0.00;0.00;;;;;-146.67;32.78;74184.47;4960894;28;61906;-83
2023/06/07 06:54:30;;;;;;;;;0.00;0.00;;;;;-146.67;32.92;74196.47;4964059;28;61806;-84
2023/06/07 06:56:56;;;;;;;;;0.00;0.00;;;;;-146.67;32.98;74202.44;4977965;28;62083;-81
2023/06/07 06:59:24;;;;;;;;;0.00;0.00;;;;;-146.67;32.97;74194.47;4981649;28;62040;-82
2023/06/07 07:01:50;;;;;;;;;0.00;0.00;;;;;-146.67;32.78;74172.50;4981983;28;61770;-84
2023/06/07 07:04:16;;;;;;;;;0.00;0.00;;;;;-146.67;32.38;74152.53;4981427;28;61778;-84
2023/06/07 07:06:42;;;;;;;;;0.00;0.00;;;;;-146.67;32.58;74130.59;4961579;28;64978;-82
2023/06/07 07:09:09;;;;;;;;;0.00;0.00;;;;;-146.67;32.46;74110.63;4962483;28;61924;-83
2023/06/07 07:11:53;;;;;;;;;0.00;0.00;;;;;-146.67;32.36;74100.63;4964409;28;61937;-82
2023/06/07 07:14:24;;;;;;;;;0.00;0.00;;;;;-146.67;32.02;74094.66;4963009;28;61945;-82
2023/06/07 07:16:50;;;;;;;;;0.00;0.00;;;;;-146.67;32.00;74084.66;4967119;28;64614;-81
2023/06/07 07:19:15;;;;;;;;;0.00;0.00;;;;;-146.67;32.09;74080.69;4981691;28;61785;-81
2023/06/07 07:21:43;;;;;;;;;0.00;0.00;;;;;-146.67;32.06;74084.66;4964770;28;62209;-81
2023/06/07 07:24:08;;;;;;;;;2.00;2.00;;;;;-146.67;32.21;74108.63;4964784;28;62101;-82
2023/06/07 07:26:35;;;;;;;;;0.00;0.00;;;;;-146.67;32.33;74084.66;4979850;28;64934;-82
2023/06/07 07:29:01;;;;;;;;;0.00;0.00;;;;;-146.67;31.95;74092.66;4980697;28;61769;-83
2023/06/07 07:31:29;;;;;;;;;0.00;0.00;;;;;-146.67;32.09;74082.69;4981327;28;61877;-83
2023/06/07 07:33:55;;;;;;;;;0.00;0.00;;;;;-146.67;32.07;74066.69;4983212;28;61807;-82
2023/06/07 07:36:22;;;;;;;;;0.00;0.00;;;;;-146.67;31.94;74050.72;4982110;28;64601;-83
2023/06/07 07:38:48;;;;;;;;;0.00;0.00;;;;;-146.67;31.55;74028.78;4983554;28;62095;-83
2023/06/07 07:41:14;;;;;;;;;0.00;0.00;;;;;-146.67;31.62;74008.81;4983128;28;61924;-83
2023/06/07 07:43:40;;;;;;;;;0.00;0.00;;;;;-146.67;31.37;73996.84;4966388;28;62154;-83
2023/06/07 07:46:06;;;;;;;;;0.00;0.00;;;;;-146.67;31.03;73990.84;4965405;28;63704;-81
2023/06/07 07:48:31;;;;;;;;;0.00;0.00;;;;;-146.67;31.11;73980.88;4982302;28;62326;-84
2023/06/07 07:50:57;;;;;;;;;0.00;0.00;;;;;-146.67;31.22;73962.91;4964995;28;62112;-83
2023/06/07 07:53:23;;;;;;;;;0.00;0.00;;;;;-146.67;31.32;73960.91;4966334;28;62001;-82
2023/06/07 07:55:48;;;;;;;;;0.00;0.00;;;;;-146.67;31.02;73950.94;4982841;28;63654;-83
2023/06/07 07:58:13;;;;;;;;;0.00;0.00;;;;;-146.67;31.28;73936.94;4982388;28;61935;-83
2023/06/07 08:00:40;;;;;;;;;0.00;0.00;;;;;-146.67;31.06;73915.00;4983561;28;61786;-83
2023/06/07 08:03:08;;;;;;;;;0.00;0.00;;;;;-146.67;30.91;73897.03;4985054;28;61909;-83
2023/06/07 08:05:33;;;;;;;;;0.00;0.00;;;;;-146.67;30.79;73889.03;4983143;28;63092;-83
2023/06/07 08:08:00;;;;;;;;;0.00;0.00;;;;;-146.67;30.66;73875.06;4966817;28;61944;-81
2023/06/07 08:10:27;;;;;;;;;0.00;0.00;;;;;-146.67;30.81;73859.09;4984020;28;62008;-82
2023/06/07 08:12:52;;;;;;;;;0.00;0.00;;;;;-146.67;30.87;73875.06;4965408;28;62227;-82
2023/06/07 08:15:23;;;;;;;;;0.00;0.00;;;;;-146.67;30.87;73853.13;4983432;28;63316;-84
2023/06/07 08:17:56;;;;;;;;;0.00;0.00;;;;;-146.67;30.65;73837.16;4978603;28;61771;-83
2023/06/07 08:20:23;;;;;;;;;0.00;0.00;;;;;-146.67;30.51;73817.19;4981912;28;62101;-82
2023/06/07 08:22:50;;;;;;;;;0.00;0.00;;;;;-146.67;30.40;73813.19;4965047;28;61953;-82
2023/06/07 08:25:19;;;;;;;;;0.00;0.00;;;;;-146.67;30.09;73789.25;4983325;28;61812;-83
2023/06/07 08:27:45;;;;;;;;;0.00;0.00;;;;;-146.67;30.10;73757.31;4973980;28;61961;-81
2023/06/07 08:30:11;;;;;;;;;0.00;0.00;;;;;-146.67;29.84;73745.31;4964589;28;61998;-84
2023/06/07 08:32:39;;;;;;;;;0.00;0.00;;;;;-146.67;29.72;73753.31;4964465;28;61988;-82
2023/06/07 08:35:21;;;;;;;;;0.00;0.00;;;;;-146.67;30.06;73773.28;4976729;28;61926;-79
2023/06/07 08:40:30;;;;;;;;;0.00;0.00;;;;;-146.67;30.15;73741.34;5148560;23;61586;-83
2023/06/07 08:42:57;;;;;;;;;0.00;0.00;;;;;-146.67;30.15;73731.34;4993091;28;62106;-82
2023/06/07 08:45:22;;;;;;;;;0.00;0.00;;;;;-146.67;30.03;73723.38;5014329;28;61883;-79
2023/06/07 08:47:50;;;;;;;;;0.00;0.00;;;;;-146.67;29.93;73721.38;5002862;28;62182;-82
2023/06/07 08:50:21;;;;;;;;;0.00;0.00;;;;;-146.67;29.82;73705.41;4994498;28;62194;-83
2023/06/07 08:52:51;;;;;;;;;0.00;0.00;;;;;-146.67;29.61;73707.41;5003599;28;61954;-85
2023/06/07 08:55:17;;;;;;;;;0.00;0.00;;;;;-146.67;29.77;73683.44;4983231;28;63776;-82
2023/06/07 08:57:46;;;;;;;;;0.00;0.00;;;;;-146.67;29.47;73669.47;5002737;28;61933;-80
2023/06/07 09:00:13;;;;;;;;;0.00;0.00;;;;;-146.67;29.82;73661.50;4966936;28;61985;-83
2023/06/07 09:02:38;;;;;;;;;0.00;0.00;;;;;-146.67;29.46;73665.47;4993767;28;61833;-81
2023/06/07 09:05:06;;;;;;;;;0.00;0.00;;;;;-146.67;29.69;73675.47;4982133;28;63563;-80
2023/06/07 09:07:33;;;;;;;;;0.00;0.00;;;;;-146.67;29.97;73681.44;5002720;28;61840;-82
2023/06/07 09:10:05;;;;;;;;;0.00;0.00;;;;;-146.67;29.82;73691.44;4981359;28;61833;-85
2023/06/07 09:12:30;;;;;;;;;0.00;0.00;;;;;-146.67;30.23;73705.41;5004088;28;61955;-81
2023/06/07 09:14:58;;;;;;;;;0.00;0.00;;;;;-146.67;30.10;73717.38;4982901;28;63695;-80
2023/06/07 09:17:23;;;;;;;;;0.00;0.00;;;;;-146.67;30.12;73733.34;5000600;28;61909;-81
2023/06/07 09:19:50;;;;;;;;;0.00;0.00;;;;;-146.67;29.98;73741.34;4980561;28;62085;-79
2023/06/07 09:22:23;;;;;;;;;0.00;0.00;;;;;-146.67;30.11;73745.31;5001438;28;62102;-82
2023/06/07 09:24:49;;;;;;;;;0.00;0.00;;;;;-146.67;30.03;73753.31;4983730;28;63756;-81
2023/06/07 09:27:28;;;;;;;;;0.00;0.00;;;;;-146.67;29.90;73751.31;5002074;28;61919;-80
2023/06/07 09:30:03;;;;;;;;;0.00;0.00;;;;;-146.67;29.60;73753.31;4980366;28;62006;-83
2023/06/07 09:32:34;;;;;;;;;0.00;0.00;;;;;-146.67;29.81;73745.31;5003141;28;61931;-82
2023/06/07 09:35:20;;;;;;;;;0.00;0.00;;;;;-146.67;29.86;73741.34;4983437;28;63365;-83
2023/06/07 09:37:47;;;;;;;;;0.00;0.00;;;;;-146.67;29.97;73737.34;4990099;28;62028;-82
2023/06/07 09:40:14;;;;;;;;;0.00;0.00;;;;;-146.67;29.51;73735.34;4985902;28;61822;-82
2023/06/07 09:42:41;;;;;;;;;0.00;0.00;;;;;-146.67;29.49;73733.34;5002978;28;61989;-83
2023/06/07 09:45:15;;;;;;;;;0.00;0.00;;;;;-146.67;29.28;73719.38;4980748;28;64882;-84
2023/06/07 09:47:42;;;;;;;;;0.00;0.00;;;;;-146.67;29.46;73719.38;4982370;28;61831;-83
2023/06/07 09:50:12;;;;;;;;;0.00;0.00;;;;;-146.67;29.75;73705.41;5000935;28;62105;-84
2023/06/07 09:52:41;;;;;;;;;0.00;0.00;;;;;-146.67;29.39;73697.41;5002853;28;61985;-85
2023/06/07 09:55:08;;;;;;;;;0.00;0.00;;;;;-146.67;29.39;73685.44;4984535;28;64602;-85
2023/06/07 09:57:37;;;;;;;;;0.00;0.00;;;;;-146.67;29.30;73667.47;4984383;28;61835;-85
2023/06/07 10:00:14;;;;;;;;;0.00;0.00;;;;;-146.67;29.15;73663.47;5002627;28;61938;-83
2023/06/07 10:02:43;;;;;;;;;0.00;0.00;;;;;-146.67;29.15;73643.53;4984774;28;61764;-81
2023/06/07 10:05:12;;;;;;;;;0.00;0.00;;;;;-146.67;29.32;73633.53;5001233;28;63428;-83
2023/06/07 10:07:43;;;;;;;;;0.00;0.00;;;;;-146.67;28.99;73615.59;4998496;28;62017;-82
2023/06/07 10:10:12;;;;;;;;;0.00;0.00;;;;;-146.67;28.87;73609.59;4992879;28;62178;-80
2023/06/07 10:12:42;;;;;;;;;0.00;0.00;;;;;-146.67;28.99;73605.59;4982060;28;62048;-80
2023/06/07 10:15:10;;;;;;;;;0.00;0.00;;;;;-146.67;28.77;73587.63;4981638;28;64422;-80
2023/06/07 10:17:43;;;;;;;;;0.00;0.00;;;;;-146.67;28.79;73571.66;4998875;28;61837;-79
2023/06/07 10:20:12;;;;;;;;;0.00;0.00;;;;;-146.67;28.96;73555.69;5001617;28;61935;-79
2023/06/07 10:22:42;;;;;;;;;0.00;0.00;;;;;-146.67;28.35;73539.72;4990200;28;62099;-80
2023/06/07 10:25:20;;;;;;;;;0.00;0.00;;;;;-146.67;28.03;73521.78;5000426;28;61851;-80
2023/06/07 10:28:08;;;;;;;;;0.00;0.00;;;;;-146.67;28.29;73515.78;4988584;28;61961;-79
2023/06/07 10:30:40;;;;;;;;;0.00;0.00;;;;;-146.67;28.13;73499.81;4982528;28;62164;-79
2023/06/07 10:33:07;;;;;;;;;0.00;0.00;;;;;-146.67;28.08;73489.84;5001364;28;61883;-80
2023/06/07 10:35:33;;;;;;;;;0.00;0.00;;;;;-146.67;28.39;73473.88;5001246;28;63071;-80
2023/06/07 10:37:59;;;;;;;;;0.00;0.00;;;;;-146.67;28.49;73461.88;4983732;28;61930;-81
2023/06/07 10:40:25;;;;;;;;;0.00;0.00;;;;;-146.67;28.25;73449.91;4998441;28;62015;-80
2023/06/07 10:42:52;;;;;;;;;0.00;0.00;;;;;-146.67;28.11;73435.94;4984624;28;61978;-81
2023/06/07 10:45:19;;;;;;;;;0.00;0.00;;;;;-146.67;27.93;73425.97;4983522;28;64906;-81
2023/06/07 10:47:47;;;;;;;;;0.00;0.00;;;;;-146.67;27.89;73415.97;5001457;28;61897;-80
2023/06/07 10:50:28;;;;;;;;;0.00;0.00;;;;;-146.67;28.07;73404.00;4984169;28;61802;-81
2023/06/07 10:53:00;;;;;;;;;0.00;0.00;;;;;-146.67;27.81;73376.06;4984685;28;61790;-79
2023/06/07 10:55:30;;;;;;;;;0.00;0.00;;;;;-146.67;27.51;73368.09;5001476;28;62073;-81
2023/06/07 10:57:55;;;;;;;;;0.00;0.00;;;;;-146.67;27.81;73346.13;5001843;28;61996;-80
2023/06/07 11:00:25;;;;;;;;;0.00;0.00;;;;;-146.67;27.87;73344.13;4984703;28;61943;-83
2023/06/07 11:03:12;;;;;;;;;0.00;0.00;;;;;-146.67;27.66;73324.16;4984221;28;62720;-82
2023/06/07 11:05:53;;;;;;;;;0.00;0.00;;;;;-146.67;27.36;73310.19;4989397;28;64949;-81
2023/06/07 11:08:23;;;;;;;;;0.00;0.00;;;;;-146.67;27.82;73302.22;4981835;28;61905;-81
2023/06/07 11:10:49;;;;;;;;;0.00;0.00;;;;;-146.67;27.33;73286.25;5004902;28;62173;-82
2023/06/07 11:13:14;;;;;;;;;0.00;0.00;;;;;-146.67;27.15;73274.28;4986273;28;62104;-82
2023/06/07 11:15:40;;;;;;;;;0.00;0.00;;;;;-146.67;27.39;73246.34;4996128;28;62514;-82
2023/06/07 11:18:08;;;;;;;;;0.00;0.00;;;;;-146.67;26.92;73234.38;4985732;28;62209;-81
2023/06/07 11:20:39;;;;;;;;;0.00;0.00;;;;;-146.67;26.73;73208.41;4977818;28;61925;-82
2023/06/07 11:23:20;;;;;;;;;0.00;0.00;;;;;-146.67;27.03;73184.47;4986222;28;62349;-82
2023/06/07 11:25:46;;;;;;;;;0.00;0.00;;;;;-146.67;26.55;73170.50;4982483;28;64101;-81
2023/06/07 11:28:12;;;;;;;;;0.00;0.00;;;;;-146.67;26.42;73148.53;5001924;28;62383;-82
2023/06/07 11:30:41;;;;;;;;;0.00;0.00;;;;;-146.67;26.34;73132.56;4999822;28;62153;-82
2023/06/07 11:33:06;;;;;;;;;0.00;0.00;;;;;-146.67;26.25;73112.63;4984537;28;62567;-83
2023/06/07 11:35:32;;;;;;;;;0.00;0.00;;;;;-146.67;25.74;73092.66;4981840;28;63894;-80